Time;durP1;ratioP1;P1;durP2;ratioP2;P2;SDS_P1;SDS_P2;PMS_P1;PMS_P2;Temp;Humidity;BMP_temperature;BMP_pressure;BME280_temperature;BME280_humidity;BME280_pressure;Samples;Min_cycle;Max_cycle;Signal;HPM_P1;HPM_P2
2022/12/18 00:00:47;;;;;;;81.28;31.13;;;;;;;;;;5041032;28;20048;-76
2022/12/18 00:03:14;;;;;;;83.70;30.42;;;;;;;;;;5041513;28;20124;-76
2022/12/18 00:05:50;;;;;;;81.47;30.17;;;;;;;;;;5037352;28;20412;-76
2022/12/18 00:08:16;;;;;;;72.45;29.30;;;;;;;;;;5048896;28;20045;-76
2022/12/18 00:10:43;;;;;;;92.07;32.40;;;;;;;;;;5045827;28;20041;-76
2022/12/18 00:13:09;;;;;;;81.20;30.88;;;;;;;;;;5035300;28;20057;-76
2022/12/18 00:15:36;;;;;;;76.50;29.27;;;;;;;;;;5018084;28;20516;-76
2022/12/18 00:18:02;;;;;;;78.75;29.23;;;;;;;;;;5035696;28;20052;-76
2022/12/18 00:20:28;;;;;;;75.78;30.98;;;;;;;;;;5034903;28;20565;-76
2022/12/18 00:22:54;;;;;;;83.70;31.23;;;;;;;;;;5035848;28;20171;-76
2022/12/18 00:25:21;;;;;;;80.40;31.65;;;;;;;;;;5049739;28;20079;-76
2022/12/18 00:27:47;;;;;;;76.25;29.90;;;;;;;;;;5035117;28;20121;-76
2022/12/18 00:30:13;;;;;;;79.20;32.20;;;;;;;;;;5035367;28;20047;-76
2022/12/18 00:32:39;;;;;;;77.85;31.40;;;;;;;;;;5035080;28;20037;-76
2022/12/18 00:35:05;;;;;;;77.90;31.48;;;;;;;;;;5035624;28;20513;-76
2022/12/18 00:37:31;;;;;;;71.22;27.90;;;;;;;;;;5034621;28;20049;-76
2022/12/18 00:39:57;;;;;;;76.60;29.23;;;;;;;;;;5050101;28;20044;-76
2022/12/18 00:45:08;;;;;;;77.90;33.97;;;;;;;;;;5034942;28;20136;-76
2022/12/18 00:47:34;;;;;;;75.38;28.02;;;;;;;;;;5034596;28;20476;-75
2022/12/18 00:50:00;;;;;;;78.38;29.95;;;;;;;;;;5017414;28;20049;-75
2022/12/18 00:52:26;;;;;;;82.30;31.10;;;;;;;;;;5048270;28;20048;-76
2022/12/18 00:54:52;;;;;;;75.70;30.02;;;;;;;;;;5034922;28;20042;-75
2022/12/18 00:57:19;;;;;;;78.38;31.15;;;;;;;;;;5035091;28;20125;-75
2022/12/18 00:59:48;;;;;;;80.45;30.77;;;;;;;;;;5034977;28;20056;-75
2022/12/18 01:02:14;;;;;;;80.75;31.30;;;;;;;;;;5034026;28;20053;-75
2022/12/18 01:04:40;;;;;;;81.78;32.70;;;;;;;;;;5034717;28;20382;-76
2022/12/18 01:07:06;;;;;;;76.50;27.95;;;;;;;;;;5028134;28;20041;-75
2022/12/18 01:09:32;;;;;;;78.95;32.33;;;;;;;;;;5017274;28;20048;-75
2022/12/18 01:11:58;;;;;;;70.45;29.40;;;;;;;;;;5034345;28;20049;-76
2022/12/18 01:14:24;;;;;;;71.47;29.38;;;;;;;;;;5035000;28;20057;-75
2022/12/18 01:16:50;;;;;;;76.82;28.85;;;;;;;;;;5034403;28;20073;-75
2022/12/18 01:19:16;;;;;;;70.40;28.88;;;;;;;;;;5016559;28;20041;-75
2022/12/18 01:21:42;;;;;;;77.32;30.38;;;;;;;;;;5008804;28;20380;-75
2022/12/18 01:24:12;;;;;;;80.93;28.60;;;;;;;;;;5024205;28;20532;-75
2022/12/18 01:26:38;;;;;;;61.58;24.58;;;;;;;;;;5020728;28;20531;-75
2022/12/18 01:29:04;;;;;;;72.03;30.10;;;;;;;;;;5034435;28;20153;-76
2022/12/18 01:31:32;;;;;;;65.32;27.38;;;;;;;;;;5016601;28;20045;-75
2022/12/18 01:33:58;;;;;;;74.57;28.08;;;;;;;;;;5033814;28;20512;-75
2022/12/18 01:36:31;;;;;;;71.57;27.23;;;;;;;;;;5040086;28;20041;-75
2022/12/18 01:38:59;;;;;;;70.38;27.60;;;;;;;;;;5046156;28;20041;-75
2022/12/18 01:42:01;;;;;;;71.97;28.50;;;;;;;;;;5033832;28;20037;-75
2022/12/18 01:44:31;;;;;;;70.95;28.35;;;;;;;;;;5033858;28;20050;-75
2022/12/18 01:46:57;;;;;;;73.85;28.35;;;;;;;;;;5033967;28;20044;-75
2022/12/18 01:49:23;;;;;;;78.07;28.35;;;;;;;;;;5033720;28;20077;-75
2022/12/18 01:51:49;;;;;;;74.80;27.45;;;;;;;;;;5046630;28;20037;-75
2022/12/18 01:54:16;;;;;;;79.20;27.30;;;;;;;;;;5053976;28;20049;-75
2022/12/18 01:56:42;;;;;;;77.65;28.83;;;;;;;;;;5053792;28;20135;-75
2022/12/18 01:59:10;;;;;;;71.00;27.80;;;;;;;;;;5053836;28;20124;-75
2022/12/18 02:01:37;;;;;;;74.00;26.33;;;;;;;;;;5037432;28;20042;-75
2022/12/18 02:04:24;;;;;;;78.28;29.40;;;;;;;;;;5033886;28;20053;-75
2022/12/18 02:07:02;;;;;;;78.28;29.40;;;;;;;;;;5022404;28;20132;-75
2022/12/18 02:09:34;;;;;;;74.32;26.90;;;;;;;;;;5015924;28;20050;-75
2022/12/18 02:12:04;;;;;;;74.90;26.70;;;;;;;;;;5033253;28;20128;-75
2022/12/18 02:14:47;;;;;;;78.70;29.45;;;;;;;;;;5033754;28;20059;-76
2022/12/18 02:17:19;;;;;;;74.97;27.23;;;;;;;;;;5033596;28;20049;-75
2022/12/18 02:19:59;;;;;;;77.07;27.48;;;;;;;;;;5032680;28;20482;-75
2022/12/18 02:22:43;;;;;;;69.72;25.05;;;;;;;;;;5039232;28;20044;-75
2022/12/18 02:25:15;;;;;;;69.85;26.50;;;;;;;;;;5033665;28;20091;-75
2022/12/18 02:27:42;;;;;;;77.13;29.02;;;;;;;;;;5033145;28;20045;-75
2022/12/18 02:30:09;;;;;;;74.35;27.63;;;;;;;;;;5033384;28;20122;-75
2022/12/18 02:32:38;;;;;;;69.03;25.88;;;;;;;;;;5033531;28;20117;-75
2022/12/18 02:35:06;;;;;;;71.05;26.33;;;;;;;;;;5034333;28;20145;-75
2022/12/18 02:37:33;;;;;;;74.63;26.77;;;;;;;;;;5036622;28;20077;-75
2022/12/18 02:39:59;;;;;;;69.43;25.77;;;;;;;;;;5033386;28;20041;-76
2022/12/18 02:42:26;;;;;;;79.13;28.50;;;;;;;;;;5032907;28;20049;-75
2022/12/18 02:44:52;;;;;;;64.82;26.48;;;;;;;;;;5032733;28;20050;-75
2022/12/18 02:47:20;;;;;;;71.07;25.27;;;;;;;;;;5032945;28;20378;-75
2022/12/18 02:49:58;;;;;;;66.88;23.67;;;;;;;;;;5035291;28;20040;-75
2022/12/18 02:52:44;;;;;;;67.22;25.02;;;;;;;;;;5052439;28;20432;-75
2022/12/18 02:55:29;;;;;;;72.28;26.10;;;;;;;;;;5052945;28;20120;-75
2022/12/18 02:58:06;;;;;;;65.88;23.88;;;;;;;;;;5031852;28;20512;-75
2022/12/18 03:00:38;;;;;;;71.05;26.30;;;;;;;;;;5033332;28;20048;-76
2022/12/18 03:03:11;;;;;;;74.32;27.05;;;;;;;;;;5036549;28;20097;-75
2022/12/18 03:05:40;;;;;;;65.90;26.55;;;;;;;;;;5046275;28;20049;-75
2022/12/18 03:08:09;;;;;;;57.70;22.48;;;;;;;;;;5055963;28;20064;-75
2022/12/18 03:10:38;;;;;;;69.07;23.30;;;;;;;;;;5048908;28;20041;-75
2022/12/18 03:13:12;;;;;;;64.50;24.42;;;;;;;;;;5032948;28;20561;-76
2022/12/18 03:15:42;;;;;;;69.15;24.52;;;;;;;;;;5033082;28;20038;-76
2022/12/18 03:18:17;;;;;;;66.43;25.08;;;;;;;;;;5033258;28;20103;-76
2022/12/18 03:20:44;;;;;;;69.70;26.45;;;;;;;;;;5024243;28;20049;-76
2022/12/18 03:23:13;;;;;;;65.57;25.23;;;;;;;;;;5053645;28;20041;-75
2022/12/18 03:25:40;;;;;;;67.70;25.42;;;;;;;;;;5048035;28;20112;-75
2022/12/18 03:28:08;;;;;;;59.95;21.90;;;;;;;;;;5032668;28;20050;-75
2022/12/18 03:30:36;;;;;;;66.70;24.23;;;;;;;;;;5033012;28;20108;-75
2022/12/18 03:33:06;;;;;;;62.05;23.77;;;;;;;;;;5033213;28;20041;-75
2022/12/18 03:35:34;;;;;;;63.92;25.65;;;;;;;;;;5020122;28;20501;-75
2022/12/18 03:38:00;;;;;;;63.92;25.23;;;;;;;;;;5022345;28;20100;-75
2022/12/18 03:40:30;;;;;;;61.30;23.95;;;;;;;;;;5031133;28;20104;-75
2022/12/18 03:43:00;;;;;;;61.13;23.02;;;;;;;;;;5031263;28;20103;-75
2022/12/18 03:45:26;;;;;;;61.45;24.50;;;;;;;;;;5032692;28;20041;-75
2022/12/18 03:48:10;;;;;;;64.30;24.63;;;;;;;;;;5015275;28;20061;-75
2022/12/18 03:50:57;;;;;;;67.95;25.67;;;;;;;;;;5041953;28;20067;-75
2022/12/18 03:53:29;;;;;;;61.90;24.83;;;;;;;;;;5052580;28;20084;-75
2022/12/18 03:55:56;;;;;;;62.72;23.23;;;;;;;;;;5046386;28;20041;-75
2022/12/18 03:58:25;;;;;;;62.25;23.58;;;;;;;;;;5036377;28;20056;-75
2022/12/18 04:00:52;;;;;;;69.57;25.25;;;;;;;;;;5036217;28;20556;-75
2022/12/18 04:03:19;;;;;;;64.30;23.95;;;;;;;;;;5036230;28;20052;-75
2022/12/18 04:05:46;;;;;;;65.63;25.85;;;;;;;;;;5030747;28;20045;-75
2022/12/18 04:08:12;;;;;;;63.47;24.08;;;;;;;;;;5042353;28;20076;-75
2022/12/18 04:10:38;;;;;;;64.40;24.95;;;;;;;;;;5035073;28;20140;-75
2022/12/18 04:13:04;;;;;;;59.25;22.95;;;;;;;;;;5031266;28;20054;-75
2022/12/18 04:15:32;;;;;;;62.60;24.00;;;;;;;;;;5035483;28;20493;-75
2022/12/18 04:17:58;;;;;;;62.42;25.23;;;;;;;;;;5035543;28;20048;-75
2022/12/18 04:20:24;;;;;;;70.18;25.02;;;;;;;;;;5045365;28;20041;-75
2022/12/18 04:22:50;;;;;;;69.13;24.52;;;;;;;;;;5035618;28;20394;-75
2022/12/18 04:25:16;;;;;;;62.25;24.73;;;;;;;;;;5034903;28;20378;-75
2022/12/18 04:27:42;;;;;;;59.53;23.25;;;;;;;;;;5035643;28;20128;-75
2022/12/18 04:30:08;;;;;;;60.92;23.98;;;;;;;;;;5035675;28;20091;-75
2022/12/18 04:32:35;;;;;;;58.35;24.05;;;;;;;;;;5035704;28;20042;-75
2022/12/18 04:35:01;;;;;;;66.68;24.02;;;;;;;;;;5037680;28;20065;-75
2022/12/18 04:37:27;;;;;;;61.47;25.02;;;;;;;;;;5021166;28;20076;-75
2022/12/18 04:39:53;;;;;;;63.38;23.58;;;;;;;;;;5017472;28;20053;-75
2022/12/18 04:42:19;;;;;;;64.97;24.13;;;;;;;;;;5035192;28;20049;-75
2022/12/18 04:44:45;;;;;;;61.58;24.40;;;;;;;;;;5017771;28;20054;-75
2022/12/18 04:47:11;;;;;;;59.67;23.67;;;;;;;;;;5035412;28;20426;-76
2022/12/18 04:49:37;;;;;;;62.55;24.33;;;;;;;;;;5046603;28;20052;-74
2022/12/18 04:52:03;;;;;;;66.20;25.50;;;;;;;;;;5037480;28;20041;-75
2022/12/18 04:54:29;;;;;;;65.88;24.10;;;;;;;;;;5055181;28;20040;-75
2022/12/18 04:56:55;;;;;;;62.22;25.08;;;;;;;;;;5022363;28;20041;-75
2022/12/18 04:59:21;;;;;;;67.47;26.10;;;;;;;;;;5012391;28;20112;-75
2022/12/18 05:01:47;;;;;;;70.00;25.60;;;;;;;;;;5036288;28;20076;-75
2022/12/18 05:04:13;;;;;;;62.80;24.48;;;;;;;;;;5034258;28;20057;-75
2022/12/18 05:06:40;;;;;;;64.60;25.20;;;;;;;;;;5034177;28;20046;-75
2022/12/18 05:09:06;;;;;;;64.82;25.02;;;;;;;;;;5034380;28;20041;-75
2022/12/18 05:11:32;;;;;;;63.97;25.13;;;;;;;;;;5017140;28;20060;-75
2022/12/18 05:13:58;;;;;;;60.42;25.15;;;;;;;;;;5044441;28;20049;-76
2022/12/18 05:16:24;;;;;;;59.35;24.73;;;;;;;;;;5002304;28;20053;-75
2022/12/18 05:18:50;;;;;;;71.57;26.80;;;;;;;;;;5016590;28;20049;-75
2022/12/18 05:21:16;;;;;;;64.28;24.10;;;;;;;;;;5016949;28;20056;-75
2022/12/18 05:23:42;;;;;;;67.07;24.45;;;;;;;;;;5016711;28;20042;-75
2022/12/18 05:26:08;;;;;;;71.13;26.17;;;;;;;;;;5017058;28;20045;-75
2022/12/18 05:28:35;;;;;;;65.95;25.80;;;;;;;;;;5042343;28;20485;-75
2022/12/18 05:31:02;;;;;;;57.83;23.55;;;;;;;;;;5036817;28;20131;-75
2022/12/18 05:33:30;;;;;;;57.30;23.63;;;;;;;;;;5043225;28;20038;-75
2022/12/18 05:35:59;;;;;;;61.17;24.95;;;;;;;;;;5034119;28;20033;-76
2022/12/18 05:38:26;;;;;;;63.90;27.13;;;;;;;;;;5034353;28;20045;-75
2022/12/18 05:40:53;;;;;;;68.30;26.08;;;;;;;;;;5034208;28;20493;-75
2022/12/18 05:43:21;;;;;;;63.80;25.27;;;;;;;;;;5033938;28;20037;-76
2022/12/18 05:45:47;;;;;;;59.08;25.00;;;;;;;;;;5054261;28;20175;-75
2022/12/18 05:48:13;;;;;;;64.03;25.17;;;;;;;;;;5043021;28;20120;-75
2022/12/18 05:50:40;;;;;;;67.38;24.90;;;;;;;;;;5034566;28;20065;-75
2022/12/18 05:53:06;;;;;;;62.03;25.80;;;;;;;;;;5033798;28;20638;-75
2022/12/18 05:55:36;;;;;;;69.43;25.02;;;;;;;;;;5033832;28;20056;-75
2022/12/18 05:58:02;;;;;;;60.55;24.15;;;;;;;;;;5042547;28;20068;-75
2022/12/18 06:00:28;;;;;;;55.58;23.75;;;;;;;;;;5034612;28;20041;-75
2022/12/18 06:02:54;;;;;;;60.17;23.50;;;;;;;;;;5043847;28;20116;-75
2022/12/18 06:05:21;;;;;;;57.75;24.63;;;;;;;;;;5044334;28;20073;-75
2022/12/18 06:07:47;;;;;;;60.33;23.17;;;;;;;;;;5035632;28;20389;-76
2022/12/18 06:10:13;;;;;;;54.03;23.88;;;;;;;;;;5016261;28;20049;-76
2022/12/18 06:12:39;;;;;;;56.90;23.05;;;;;;;;;;5033060;28;20061;-75
2022/12/18 06:15:05;;;;;;;57.10;22.98;;;;;;;;;;5015882;28;20126;-76
2022/12/18 06:17:32;;;;;;;54.85;23.13;;;;;;;;;;5033054;28;20132;-75
2022/12/18 06:19:58;;;;;;;52.40;22.50;;;;;;;;;;5053578;28;20052;-76
2022/12/18 06:22:24;;;;;;;57.47;24.35;;;;;;;;;;5053847;28;20385;-75
2022/12/18 06:24:50;;;;;;;57.03;24.45;;;;;;;;;;5053421;28;20045;-76
2022/12/18 06:27:16;;;;;;;54.70;23.60;;;;;;;;;;5016697;28;20124;-76
2022/12/18 06:29:42;;;;;;;51.00;22.73;;;;;;;;;;5032031;28;20045;-75
2022/12/18 06:32:09;;;;;;;51.67;22.42;;;;;;;;;;5034750;28;20041;-75
2022/12/18 06:34:35;;;;;;;48.10;21.95;;;;;;;;;;4996530;28;20057;-75
2022/12/18 06:37:01;;;;;;;48.35;21.65;;;;;;;;;;5028790;28;20045;-75
2022/12/18 06:39:30;;;;;;;49.85;21.63;;;;;;;;;;5015692;28;20464;-76
2022/12/18 06:41:56;;;;;;;56.55;22.98;;;;;;;;;;5015545;28;20045;-76
2022/12/18 06:44:22;;;;;;;44.30;20.33;;;;;;;;;;5033033;28;20370;-76
2022/12/18 06:46:48;;;;;;;47.88;21.40;;;;;;;;;;5038333;28;20113;-75
2022/12/18 06:49:15;;;;;;;51.63;22.70;;;;;;;;;;5033558;28;20088;-75
2022/12/18 06:51:41;;;;;;;51.10;22.95;;;;;;;;;;5033072;28;20072;-75
2022/12/18 06:54:08;;;;;;;53.85;21.83;;;;;;;;;;5033081;28;20091;-75
2022/12/18 06:56:34;;;;;;;51.17;20.50;;;;;;;;;;5014754;28;20548;-76
2022/12/18 06:59:00;;;;;;;46.58;20.10;;;;;;;;;;5032784;28;20041;-76
2022/12/18 07:01:26;;;;;;;48.67;21.30;;;;;;;;;;5038182;28;20037;-76
2022/12/18 07:03:54;;;;;;;49.65;21.88;;;;;;;;;;5032807;28;20136;-76
2022/12/18 07:06:21;;;;;;;48.90;21.05;;;;;;;;;;5019751;28;20482;-76
2022/12/18 07:08:47;;;;;;;44.17;20.52;;;;;;;;;;5033033;28;20127;-75
2022/12/18 07:11:14;;;;;;;43.90;19.73;;;;;;;;;;5014796;28;20042;-77
2022/12/18 07:13:40;;;;;;;42.00;19.73;;;;;;;;;;5013215;28;20057;-75
2022/12/18 07:16:06;;;;;;;43.65;19.92;;;;;;;;;;5023772;28;20033;-75
2022/12/18 07:18:32;;;;;;;39.05;17.98;;;;;;;;;;5022711;28;20502;-75
2022/12/18 07:20:58;;;;;;;43.42;20.88;;;;;;;;;;5008518;28;20048;-76
2022/12/18 07:23:24;;;;;;;41.67;18.63;;;;;;;;;;5035385;28;20053;-76
2022/12/18 07:25:50;;;;;;;41.38;19.67;;;;;;;;;;5034906;28;20053;-76
2022/12/18 07:28:16;;;;;;;41.47;19.60;;;;;;;;;;5038288;28;20041;-76
2022/12/18 07:30:42;;;;;;;41.97;19.30;;;;;;;;;;5016179;28;20052;-76
2022/12/18 07:33:08;;;;;;;39.53;17.98;;;;;;;;;;5036384;28;20060;-76
2022/12/18 07:35:34;;;;;;;37.97;16.85;;;;;;;;;;5024564;28;20049;-76
2022/12/18 07:38:00;;;;;;;40.45;17.67;;;;;;;;;;5026401;28;20187;-76
2022/12/18 07:40:26;;;;;;;35.28;16.67;;;;;;;;;;5018833;28;20128;-75
2022/12/18 07:42:52;;;;;;;37.50;17.55;;;;;;;;;;5034589;28;20478;-76
2022/12/18 07:45:18;;;;;;;34.58;16.88;;;;;;;;;;5021652;28;20042;-76
2022/12/18 07:47:44;;;;;;;37.50;17.50;;;;;;;;;;5018308;28;20049;-76
2022/12/18 07:50:11;;;;;;;40.47;17.30;;;;;;;;;;5040660;28;20388;-76
2022/12/18 07:52:37;;;;;;;37.88;17.58;;;;;;;;;;5023761;28;20070;-76
2022/12/18 07:55:03;;;;;;;38.72;17.88;;;;;;;;;;5018599;28;20395;-76
2022/12/18 07:57:29;;;;;;;38.67;19.05;;;;;;;;;;5018121;28;20041;-76
2022/12/18 07:59:55;;;;;;;35.92;17.63;;;;;;;;;;5017890;28;20493;-76
2022/12/18 08:02:21;;;;;;;35.92;17.17;;;;;;;;;;5018395;28;20533;-76
2022/12/18 08:04:47;;;;;;;34.10;16.10;;;;;;;;;;5021641;28;20120;-76
2022/12/18 08:07:13;;;;;;;36.63;17.98;;;;;;;;;;5037980;28;20076;-76
2022/12/18 08:09:39;;;;;;;33.75;17.15;;;;;;;;;;5019531;28;20481;-76
2022/12/18 08:12:06;;;;;;;40.58;19.33;;;;;;;;;;5040569;28;20107;-76
2022/12/18 08:14:32;;;;;;;42.22;21.88;;;;;;;;;;5036132;28;20050;-77
2022/12/18 08:16:58;;;;;;;39.33;19.08;;;;;;;;;;5017162;28;20098;-76
2022/12/18 08:19:24;;;;;;;44.70;18.60;;;;;;;;;;5018651;28;20053;-76
2022/12/18 08:21:50;;;;;;;35.45;18.15;;;;;;;;;;5018476;28;20042;-77
2022/12/18 08:24:16;;;;;;;39.55;18.15;;;;;;;;;;5035831;28;20044;-76
2022/12/18 08:26:42;;;;;;;36.53;17.00;;;;;;;;;;5018487;28;20045;-76
2022/12/18 08:29:09;;;;;;;35.17;16.48;;;;;;;;;;5019706;28;20098;-77
2022/12/18 08:31:35;;;;;;;34.95;17.17;;;;;;;;;;5037749;28;20046;-77
2022/12/18 08:34:01;;;;;;;39.92;18.58;;;;;;;;;;5016724;28;20052;-77
2022/12/18 08:36:27;;;;;;;41.95;19.65;;;;;;;;;;5018474;28;20047;-77
2022/12/18 08:38:53;;;;;;;41.03;18.85;;;;;;;;;;5003870;28;20061;-77
2022/12/18 08:41:20;;;;;;;41.35;19.23;;;;;;;;;;5020506;28;20041;-77
2022/12/18 08:46:41;;;;;;;40.47;17.83;;;;;;;;;;5035794;28;20050;-77
2022/12/18 08:49:08;;;;;;;32.78;16.75;;;;;;;;;;5001530;28;20050;-77
2022/12/18 08:51:34;;;;;;;36.72;17.65;;;;;;;;;;5034869;28;20049;-77
2022/12/18 08:54:00;;;;;;;35.40;16.85;;;;;;;;;;5035467;28;20038;-77
2022/12/18 08:56:26;;;;;;;34.58;16.13;;;;;;;;;;5034734;28;20053;-77
2022/12/18 08:58:53;;;;;;;33.70;16.83;;;;;;;;;;5035166;28;20049;-77
2022/12/18 09:01:19;;;;;;;36.30;16.33;;;;;;;;;;5038611;28;20041;-77
2022/12/18 09:03:45;;;;;;;37.35;17.85;;;;;;;;;;5039307;28;20048;-77
2022/12/18 09:06:14;;;;;;;39.38;17.65;;;;;;;;;;5031256;28;20049;-77
2022/12/18 09:08:40;;;;;;;39.30;18.00;;;;;;;;;;5015282;28;20054;-77
2022/12/18 09:11:11;;;;;;;35.25;17.50;;;;;;;;;;5034592;28;20071;-76
2022/12/18 09:13:37;;;;;;;32.78;16.27;;;;;;;;;;5034912;28;20053;-80
2022/12/18 09:16:03;;;;;;;35.40;18.13;;;;;;;;;;5034882;28;20056;-77
2022/12/18 09:18:29;;;;;;;33.53;16.65;;;;;;;;;;5034558;28;20096;-77
2022/12/18 09:20:55;;;;;;;34.95;17.10;;;;;;;;;;5036139;28;20041;-77
2022/12/18 09:23:22;;;;;;;31.90;17.75;;;;;;;;;;5047192;28;20041;-77
2022/12/18 09:25:48;;;;;;;32.85;17.23;;;;;;;;;;5023399;28;20037;-78
2022/12/18 09:28:16;;;;;;;33.70;15.88;;;;;;;;;;5037557;28;20088;-77
2022/12/18 09:30:44;;;;;;;34.78;16.83;;;;;;;;;;5035226;28;20115;-77
2022/12/18 09:33:10;;;;;;;28.17;15.63;;;;;;;;;;5034619;28;20123;-77
2022/12/18 09:35:39;;;;;;;31.02;16.13;;;;;;;;;;5034553;28;20049;-77
2022/12/18 09:38:06;;;;;;;35.30;17.00;;;;;;;;;;5034005;28;20069;-77
2022/12/18 09:40:37;;;;;;;29.27;16.80;;;;;;;;;;5037615;28;20095;-78
2022/12/18 09:43:07;;;;;;;33.42;16.65;;;;;;;;;;5039670;28;20048;-77
2022/12/18 09:45:39;;;;;;;29.65;15.23;;;;;;;;;;5033600;28;20484;-77
2022/12/18 09:48:06;;;;;;;30.88;16.02;;;;;;;;;;5034079;28;20048;-77
2022/12/18 09:50:37;;;;;;;26.77;14.82;;;;;;;;;;5025318;28;20451;-76
2022/12/18 09:53:07;;;;;;;28.70;14.48;;;;;;;;;;5027770;28;20050;-76
2022/12/18 09:55:38;;;;;;;26.80;13.70;;;;;;;;;;5033847;28;20124;-77
2022/12/18 09:58:10;;;;;;;27.80;14.38;;;;;;;;;;5034428;28;20064;-77
2022/12/18 10:00:36;;;;;;;28.40;15.15;;;;;;;;;;5032534;28;20494;-77
2022/12/18 10:03:15;;;;;;;28.88;13.95;;;;;;;;;;5033599;28;20434;-76
2022/12/18 10:05:42;;;;;;;25.25;13.52;;;;;;;;;;5019734;28;20494;-76
2022/12/18 10:08:13;;;;;;;21.98;13.32;;;;;;;;;;5033110;28;20077;-76
2022/12/18 10:11:00;;;;;;;26.48;13.98;;;;;;;;;;5033522;28;20482;-76
2022/12/18 10:13:44;;;;;;;24.33;13.57;;;;;;;;;;5034169;28;20049;-76
2022/12/18 10:16:15;;;;;;;23.63;12.77;;;;;;;;;;5028352;28;20100;-76
2022/12/18 10:19:02;;;;;;;21.73;12.73;;;;;;;;;;5011143;28;20443;-76
2022/12/18 10:21:32;;;;;;;24.58;12.57;;;;;;;;;;5033675;28;20058;-76
2022/12/18 10:24:03;;;;;;;22.15;13.07;;;;;;;;;;5033716;28;20049;-76
2022/12/18 10:26:31;;;;;;;25.35;11.77;;;;;;;;;;5033538;28;20056;-76
2022/12/18 10:28:57;;;;;;;20.90;12.15;;;;;;;;;;5033639;28;20046;-76
2022/12/18 10:31:24;;;;;;;23.95;11.85;;;;;;;;;;5033418;28;20041;-76
2022/12/18 10:33:50;;;;;;;22.10;11.63;;;;;;;;;;5032984;28;20037;-76
2022/12/18 10:36:16;;;;;;;19.13;11.52;;;;;;;;;;5033404;28;20045;-76
2022/12/18 10:38:43;;;;;;;24.67;13.18;;;;;;;;;;5014689;28;20051;-76
2022/12/18 10:41:23;;;;;;;25.17;12.98;;;;;;;;;;5032659;28;20512;-76
2022/12/18 10:43:49;;;;;;;22.02;12.15;;;;;;;;;;5013607;28;20053;-76
2022/12/18 10:46:17;;;;;;;22.75;12.40;;;;;;;;;;5013587;28;20387;-76
2022/12/18 10:48:49;;;;;;;26.48;13.40;;;;;;;;;;5018964;28;20453;-76
2022/12/18 10:51:26;;;;;;;21.00;13.20;;;;;;;;;;5032896;28;20041;-76
2022/12/18 10:53:54;;;;;;;20.45;11.43;;;;;;;;;;5032971;28;20050;-76
2022/12/18 10:56:21;;;;;;;20.70;12.23;;;;;;;;;;5033599;28;20124;-76
2022/12/18 10:58:56;;;;;;;20.35;11.65;;;;;;;;;;5033105;28;20386;-76
2022/12/18 11:01:22;;;;;;;19.48;11.90;;;;;;;;;;5031894;28;20346;-76
2022/12/18 11:03:51;;;;;;;22.80;12.23;;;;;;;;;;5033330;28;20114;-76
2022/12/18 11:06:18;;;;;;;20.52;12.43;;;;;;;;;;5035672;28;20040;-78
2022/12/18 11:08:57;;;;;;;23.85;12.43;;;;;;;;;;5037379;28;20077;-77
2022/12/18 11:11:24;;;;;;;20.42;12.07;;;;;;;;;;5038340;28;20053;-77
2022/12/18 11:13:59;;;;;;;20.75;11.23;;;;;;;;;;5036673;28;20494;-77
2022/12/18 11:16:25;;;;;;;18.90;11.48;;;;;;;;;;5037172;28;20052;-77
2022/12/18 11:18:51;;;;;;;17.60;10.45;;;;;;;;;;5040292;28;20041;-77
2022/12/18 11:21:18;;;;;;;21.20;12.05;;;;;;;;;;5031478;28;20121;-77
2022/12/18 11:23:53;;;;;;;20.33;11.93;;;;;;;;;;5036349;28;20100;-77
2022/12/18 11:26:21;;;;;;;20.30;11.38;;;;;;;;;;5037292;28;20038;-78
2022/12/18 11:28:49;;;;;;;21.63;12.68;;;;;;;;;;5035623;28;20052;-78
2022/12/18 11:31:15;;;;;;;19.92;11.52;;;;;;;;;;5036762;28;20068;-77
2022/12/18 11:34:02;;;;;;;19.77;11.38;;;;;;;;;;5019096;28;20449;-78
2022/12/18 11:36:30;;;;;;;19.65;11.57;;;;;;;;;;5032894;28;20080;-77
2022/12/18 11:38:58;;;;;;;19.17;10.98;;;;;;;;;;5035956;28;20389;-77
2022/12/18 11:44:28;;;;;;;17.73;10.27;;;;;;;;;;5036516;28;20121;-77
2022/12/18 11:47:05;;;;;;;22.95;11.45;;;;;;;;;;5036436;28;20037;-77
2022/12/18 11:49:35;;;;;;;20.17;11.32;;;;;;;;;;5035993;28;20052;-77
2022/12/18 11:52:04;;;;;;;25.65;12.30;;;;;;;;;;5043439;28;20050;-78
2022/12/18 11:54:31;;;;;;;19.20;10.90;;;;;;;;;;5036338;28;20042;-77
2022/12/18 11:57:04;;;;;;;16.42;9.95;;;;;;;;;;5034673;28;20377;-77
2022/12/18 11:59:49;;;;;;;16.65;9.50;;;;;;;;;;5043507;28;20428;-77
2022/12/18 12:02:22;;;;;;;17.70;9.80;;;;;;;;;;5042133;28;20104;-77
2022/12/18 12:04:54;;;;;;;16.85;10.25;;;;;;;;;;5057104;28;20037;-77
2022/12/18 12:07:23;;;;;;;15.95;10.00;;;;;;;;;;5028562;28;20429;-78
2022/12/18 12:09:55;;;;;;;16.02;10.10;;;;;;;;;;5053611;28;20048;-78
2022/12/18 12:12:45;;;;;;;17.35;10.25;;;;;;;;;;5036048;28;20128;-78
2022/12/18 12:15:11;;;;;;;16.48;9.98;;;;;;;;;;5018945;28;20056;-80
2022/12/18 12:17:47;;;;;;;18.15;10.68;;;;;;;;;;5044691;28;20103;-80
2022/12/18 12:20:19;;;;;;;18.67;11.10;;;;;;;;;;5054372;28;20048;-78
2022/12/18 12:22:51;;;;;;;16.23;10.88;;;;;;;;;;5037914;28;20045;-77
2022/12/18 12:25:20;;;;;;;21.63;12.18;;;;;;;;;;5040848;28;20392;-79
2022/12/18 12:28:04;;;;;;;20.48;11.48;;;;;;;;;;5033321;28;20049;-77
2022/12/18 12:30:36;;;;;;;16.70;10.05;;;;;;;;;;5026778;28;20049;-77
2022/12/18 12:33:21;;;;;;;15.77;10.30;;;;;;;;;;5038623;28;20034;-81
2022/12/18 12:35:47;;;;;;;15.98;10.43;;;;;;;;;;5040429;28;20127;-77
2022/12/18 12:38:18;;;;;;;15.48;9.73;;;;;;;;;;5035282;28;20049;-77
2022/12/18 12:40:49;;;;;;;16.95;9.95;;;;;;;;;;5016903;28;20053;-76
2022/12/18 12:43:24;;;;;;;18.40;10.93;;;;;;;;;;5034414;28;20047;-76
2022/12/18 12:46:10;;;;;;;19.00;10.88;;;;;;;;;;5032625;28;20478;-77
2022/12/18 12:48:44;;;;;;;19.67;12.00;;;;;;;;;;5024419;28;20037;-77
2022/12/18 12:51:13;;;;;;;17.58;11.48;;;;;;;;;;5039015;28;20044;-77
2022/12/18 12:53:41;;;;;;;14.98;8.95;;;;;;;;;;5035503;28;20497;-77
2022/12/18 12:56:09;;;;;;;16.48;10.88;;;;;;;;;;5039459;28;20377;-77
2022/12/18 12:58:35;;;;;;;16.42;9.68;;;;;;;;;;5049199;28;20120;-77
2022/12/18 13:01:10;;;;;;;19.80;11.57;;;;;;;;;;5032105;28;20045;-77
2022/12/18 13:04:05;;;;;;;16.20;9.40;;;;;;;;;;5031086;28;20100;-77
2022/12/18 13:06:42;;;;;;;15.93;9.10;;;;;;;;;;5022678;28;20060;-77
2022/12/18 13:09:07;;;;;;;;;;;;;;;;;;5025341;28;21687;-77
2022/12/18 13:14:27;;;;;;;15.35;8.80;;;;;;;;;;5031278;28;20123;-76
2022/12/18 13:17:13;;;;;;;15.38;9.55;;;;;;;;;;5033648;28;20121;-77
2022/12/18 13:19:39;;;;;;;14.80;8.50;;;;;;;;;;5016295;28;20060;-77
2022/12/18 13:22:21;;;;;;;14.50;9.68;;;;;;;;;;5007002;28;20095;-77
2022/12/18 13:24:47;;;;;;;13.27;8.95;;;;;;;;;;5033221;28;20053;-77
2022/12/18 13:27:32;;;;;;;12.90;9.18;;;;;;;;;;5029633;28;20042;-77
2022/12/18 13:29:58;;;;;;;11.98;8.05;;;;;;;;;;5031659;28;20417;-77
2022/12/18 13:32:25;;;;;;;13.10;8.45;;;;;;;;;;5032494;28;20052;-76
2022/12/18 13:35:21;;;;;;;13.88;8.80;;;;;;;;;;5032721;28;20046;-77
2022/12/18 13:37:53;;;;;;;14.75;8.27;;;;;;;;;;5011584;28;20060;-77
2022/12/18 13:40:38;;;;;;;10.27;7.55;;;;;;;;;;5034839;28;20399;-77
2022/12/18 13:43:14;;;;;;;14.55;8.60;;;;;;;;;;5028182;28;20522;-77
2022/12/18 13:45:44;;;;;;;16.45;8.07;;;;;;;;;;5034370;28;20046;-77
2022/12/18 13:48:18;;;;;;;10.85;7.78;;;;;;;;;;5028234;28;20038;-77
2022/12/18 13:50:48;;;;;;;10.63;7.60;;;;;;;;;;5033095;28;20116;-77
2022/12/18 13:53:20;;;;;;;11.90;7.43;;;;;;;;;;5035297;28;20053;-77
2022/12/18 13:55:46;;;;;;;11.18;7.00;;;;;;;;;;5034577;28;20097;-77
2022/12/18 13:58:13;;;;;;;10.02;7.22;;;;;;;;;;5034016;28;20053;-77
2022/12/18 14:00:42;;;;;;;11.40;7.20;;;;;;;;;;5033641;28;20548;-77
2022/12/18 14:03:19;;;;;;;11.15;6.63;;;;;;;;;;5033858;28;20033;-77
2022/12/18 14:05:46;;;;;;;11.95;7.57;;;;;;;;;;5032874;28;20497;-78
2022/12/18 14:08:14;;;;;;;11.13;6.60;;;;;;;;;;5033472;28;20042;-76
2022/12/18 14:10:41;;;;;;;10.20;7.35;;;;;;;;;;5033509;28;20073;-76
2022/12/18 14:13:10;;;;;;;10.52;7.10;;;;;;;;;;5020515;28;20050;-76
2022/12/18 14:15:43;;;;;;;10.50;7.18;;;;;;;;;;5033743;28;20100;-77
2022/12/18 14:18:15;;;;;;;13.65;8.48;;;;;;;;;;5040037;28;20048;-76
2022/12/18 14:20:44;;;;;;;11.52;7.35;;;;;;;;;;5037082;28;20128;-76
2022/12/18 14:23:29;;;;;;;9.20;6.53;;;;;;;;;;5033676;28;20056;-76
2022/12/18 14:25:55;;;;;;;11.02;6.68;;;;;;;;;;5033411;28;20485;-76
2022/12/18 14:28:25;;;;;;;10.50;6.82;;;;;;;;;;5032374;28;20045;-77
2022/12/18 14:30:52;;;;;;;11.38;6.68;;;;;;;;;;5033165;28;20053;-76
2022/12/18 14:33:19;;;;;;;11.20;6.68;;;;;;;;;;5041605;28;20118;-77
2022/12/18 14:35:58;;;;;;;11.32;6.90;;;;;;;;;;5035944;28;20099;-77
2022/12/18 14:38:36;;;;;;;9.05;6.35;;;;;;;;;;5021246;28;20053;-77
2022/12/18 14:41:13;;;;;;;10.63;6.63;;;;;;;;;;5033745;28;20048;-76